Terminal Aerodrome Forecast
Issued by NWS Atlanta, GA

Home | Current Version | Previous Version | Text Only | Print | Product List | Glossary On
Versions: 1 2 3 4 5 6 7 8 9 10 11 12 13 14 15 16
473
FTUS42 KFFC 231120
TAFCSG
TAF
KCSG 231120Z 2312/2412 08004KT P6SM FEW250
     FM231500 09007KT P6SM FEW035
     FM231800 09009KT P6SM SCT050
     FM240000 08003KT P6SM FEW050 SCT250=

USA.gov is the U.S. government's official web portal to all federal, state and local government web resources and services.